Stockholm, Sweden

1:33 PM CEST on October 25, 2014 (GMT +0200)
Solna | Change Station
CLOSE
Current Station
Personal Weather Station
Location: Solna, Stockholm
Elevation: 72 ft
Nearby Weather Stations

Elev 72 ft 59.35 °N, 18.02 °E | Updated 38 seconds ago

Rain
Rain
49.6 °F
Feels Like 50 °F
N
2.2
Wind Variable Wind from NNE
Gusts 3.8 mph

Today
High -- | Low -- °F
--% Chance of Precip.
Yesterday
High -- | Low -- °F
Precip. -- in
7:49 AM 5:13 PM
Waxing Crescent, 3% visible
Pressure 29.98 in
Visibility 5.0 miles
Clouds Scattered Clouds 1000 ft
Mostly Cloudy 1700 ft
Windchill 50 °F
Dew Point 49 °F
Humidity 99%
Rainfall 0.06 in
Snow Depth Not available.
UV 1 out of 12
Pollen Not available.
Air Quality Not available.
Flu Activity Not available.
METAR ESSB 251120Z 18011KT 8000 RA SCT010 BKN017 09/08 Q1015

More Conditions Fewer Conditions

Pressure 29.98 in
Visibility 5.0 miles
Clouds Scattered Clouds 1000 ft
Mostly Cloudy 1700 ft
Windchill 50 °F
Dew Point 49 °F
Humidity 99%
Rainfall 0.06 in
Snow Depth Not available.
UV 1 out of 12
Pollen Not available.
Air Quality Not available.
Flu Activity Not available.
METAR ESSB 251120Z 18011KT 8000 RA SCT010 BKN017 09/08 Q1015

More Conditions Fewer Conditions

10-Day Weather Forecast

Almanac

Astronomy

Oct. 25, 2014 Rise Set
Actual Time 7:49 AM CEST 5:13 PM CEST
Civil Twilight 7:06 AM CEST 5:56 PM CEST
Nautical Twilight 6:18 AM CEST 6:43 PM CEST
Astronomical Twilight 5:31 AM CEST 7:30 PM CEST
Moon 9:27 AM CEST 6:03 PM CEST
Length of Visible Light 10h 49m
Length of Day
9h 24m
Tomorrow will be 5m 8s shorter.
Waxing Crescent, 3% of the Moon is Illuminated
Today
Waxing Crescent
Oct 30
First Quarter
Nov 6
Full
Nov 14
Last Quarter
Nov 22
New

Yesterday's Extremes

Country Highs Country Lows

Community

WunderPhotos

Upload Photos

1,764,810 photos uploaded!

Nearby

Snow Depth

Not available.

Earthquake Activity

City Distance Mag. Time & Date
No recent earthquake activity has been reported nearby.
Minimum magnitude displayed is 2.5.

Coastal Water Temperatures

Place Temperature
No Stations Reporting

Nearby Weather Stations